Time;durP1;ratioP1;P1;durP2;ratioP2;P2;SDS_P1;SDS_P2;PMS_P1;PMS_P2;Temp;Humidity;BMP_temperature;BMP_pressure;BME280_temperature;BME280_humidity;BME280_pressure;Samples;Min_cycle;Max_cycle;Signal;HPM_P1;HPM_P2
2023/10/13 00:01:47;;;;;;;11.98;10.77;;;16.30;99.90;;;;;;5081491;28;20864;-74
2023/10/13 00:04:16;;;;;;;11.88;10.68;;;16.30;99.90;;;;;;5078216;28;20957;-74
2023/10/13 00:06:44;;;;;;;11.32;10.23;;;16.30;99.90;;;;;;5081115;28;20426;-74
2023/10/13 00:09:14;;;;;;;11.02;9.93;;;16.30;99.90;;;;;;5075087;28;20523;-74
2023/10/13 00:11:44;;;;;;;11.18;10.07;;;16.30;99.90;;;;;;5079989;28;20437;-74
2023/10/13 00:14:14;;;;;;;12.27;11.05;;;16.30;99.90;;;;;;5076557;28;20431;-74
2023/10/13 00:16:41;;;;;;;11.68;10.57;;;16.40;99.90;;;;;;5078415;28;20431;-74
2023/10/13 00:19:10;;;;;;;11.80;10.80;;;16.40;99.90;;;;;;5077459;28;20448;-74
2023/10/13 00:21:38;;;;;;;11.10;10.00;;;16.40;99.90;;;;;;5076639;28;20924;-74
2023/10/13 00:24:11;;;;;;;11.77;10.70;;;16.40;99.90;;;;;;5078121;28;20426;-74
2023/10/13 00:26:42;;;;;;;11.40;10.20;;;16.40;99.90;;;;;;5080189;28;20475;-74
2023/10/13 00:29:15;;;;;;;11.32;10.15;;;16.40;99.90;;;;;;5082406;28;20463;-74
2023/10/13 00:31:43;;;;;;;11.20;10.20;;;16.40;99.90;;;;;;5080925;28;20517;-74
2023/10/13 00:34:11;;;;;;;11.30;10.20;;;16.40;99.90;;;;;;5082425;28;20437;-74
2023/10/13 00:36:48;;;;;;;11.25;10.15;;;16.40;99.90;;;;;;5078853;28;20498;-74
2023/10/13 00:39:15;;;;;;;12.80;11.15;;;16.40;99.90;;;;;;5081479;28;20425;-74
2023/10/13 00:41:51;;;;;;;11.15;10.10;;;16.40;99.90;;;;;;5083576;28;20426;-74
2023/10/13 00:44:25;;;;;;;12.07;10.87;;;16.40;99.90;;;;;;5081001;28;20425;-74
2023/10/13 00:46:56;;;;;;;11.63;10.50;;;16.40;99.90;;;;;;5078517;28;20878;-74
2023/10/13 00:49:22;;;;;;;11.43;10.52;;;16.40;99.90;;;;;;5086474;28;20497;-74
2023/10/13 00:51:50;;;;;;;12.38;11.27;;;16.40;99.90;;;;;;5080220;28;20430;-74
2023/10/13 00:54:26;;;;;;;12.70;11.40;;;16.40;99.90;;;;;;5081229;28;20445;-74
2023/10/13 00:56:57;;;;;;;12.35;11.07;;;16.30;99.90;;;;;;5084681;28;20929;-74
2023/10/13 00:59:25;;;;;;;12.70;11.60;;;16.30;99.90;;;;;;5076376;28;20422;-74
2023/10/13 01:01:55;;;;;;;11.35;10.30;;;16.30;99.90;;;;;;5080749;28;20414;-74
2023/10/13 01:04:23;;;;;;;11.98;10.77;;;16.30;99.90;;;;;;5084245;28;20479;-74
2023/10/13 01:06:51;;;;;;;11.80;10.70;;;16.30;99.90;;;;;;5083742;28;20643;-74
2023/10/13 01:09:17;;;;;;;12.10;10.80;;;16.40;99.90;;;;;;5077430;28;20461;-75
2023/10/13 01:11:46;;;;;;;12.13;10.93;;;16.40;99.90;;;;;;5083683;28;20492;-74
2023/10/13 01:14:14;;;;;;;13.40;11.05;;;16.40;99.90;;;;;;5081076;28;20612;-74
2023/10/13 01:16:43;;;;;;;11.40;10.30;;;16.30;99.90;;;;;;5084324;28;20517;-73
2023/10/13 01:19:11;;;;;;;11.30;10.20;;;16.40;99.90;;;;;;5082692;28;20465;-74
2023/10/13 01:21:40;;;;;;;12.63;10.85;;;16.40;99.90;;;;;;5081786;28;20422;-74
2023/10/13 01:24:08;;;;;;;11.88;10.68;;;16.40;99.90;;;;;;5081736;28;20433;-74
2023/10/13 01:26:38;;;;;;;11.80;10.80;;;16.40;99.90;;;;;;5082571;28;20456;-74
2023/10/13 01:29:14;;;;;;;11.93;10.93;;;16.40;99.90;;;;;;5081934;28;20474;-74
2023/10/13 01:31:45;;;;;;;12.65;11.35;;;16.40;99.90;;;;;;5078218;28;20418;-74
2023/10/13 01:34:12;;;;;;;12.07;10.88;;;16.40;99.90;;;;;;5077345;28;20541;-74
2023/10/13 01:36:40;;;;;;;12.40;11.20;;;16.40;99.90;;;;;;5077473;28;20425;-74
2023/10/13 01:39:07;;;;;;;12.30;11.10;;;16.40;99.90;;;;;;5083568;28;20430;-74
2023/10/13 01:41:37;;;;;;;12.90;11.05;;;16.40;99.90;;;;;;5081086;28;20417;-74
2023/10/13 01:44:04;;;;;;;12.50;11.30;;;16.40;99.90;;;;;;5082756;28;20536;-73
2023/10/13 01:46:31;;;;;;;12.45;11.25;;;16.40;99.90;;;;;;5079549;28;20497;-73
2023/10/13 01:48:57;;;;;;;12.45;11.35;;;16.40;99.90;;;;;;5081639;28;20860;-75
2023/10/13 01:51:28;;;;;;;12.20;11.10;;;16.40;99.90;;;;;;5078697;28;20430;-74
2023/10/13 01:53:56;;;;;;;12.15;10.95;;;16.40;99.90;;;;;;5080235;28;20422;-74
2023/10/13 01:56:24;;;;;;;12.80;11.60;;;16.40;99.90;;;;;;5079832;28;20508;-73
2023/10/13 01:58:51;;;;;;;12.95;11.40;;;16.40;99.90;;;;;;5075341;28;20437;-74
2023/10/13 02:01:26;;;;;;;13.82;11.88;;;16.40;99.90;;;;;;5083168;28;20445;-73
2023/10/13 02:04:01;;;;;;;13.37;11.97;;;16.40;99.90;;;;;;5077964;28;20513;-73
2023/10/13 02:06:32;;;;;;;13.10;11.90;;;16.40;99.90;;;;;;5077358;28;20482;-73
2023/10/13 02:09:09;;;;;;;13.23;11.82;;;16.40;99.90;;;;;;5078899;28;20538;-73
2023/10/13 02:11:37;;;;;;;13.35;12.15;;;16.40;99.90;;;;;;5076083;28;20799;-73
2023/10/13 02:14:04;;;;;;;12.82;11.73;;;16.40;99.90;;;;;;5078823;28;20436;-74
2023/10/13 02:16:30;;;;;;;12.40;11.30;;;16.40;99.90;;;;;;5082634;28;20444;-74
2023/10/13 02:18:57;;;;;;;12.98;11.77;;;16.40;99.90;;;;;;5082106;28;20499;-73
2023/10/13 02:21:31;;;;;;;13.10;11.80;;;16.40;99.90;;;;;;5080299;28;20518;-73
2023/10/13 02:24:00;;;;;;;12.80;11.68;;;16.40;99.90;;;;;;5084707;28;20506;-73
2023/10/13 02:26:38;;;;;;;13.38;12.18;;;16.40;99.90;;;;;;5078904;28;20426;-73
2023/10/13 02:29:07;;;;;;;12.90;11.80;;;16.40;99.90;;;;;;5081658;28;20476;-74
2023/10/13 02:31:35;;;;;;;13.25;11.90;;;16.40;99.90;;;;;;5082446;28;20499;-74
2023/10/13 02:34:06;;;;;;;12.30;11.10;;;16.40;99.90;;;;;;5079108;28;20429;-73
2023/10/13 02:36:36;;;;;;;13.67;11.60;;;16.40;99.90;;;;;;5075937;28;20465;-73
2023/10/13 02:39:07;;;;;;;13.10;11.90;;;16.40;99.90;;;;;;5080846;28;20486;-73
2023/10/13 02:41:36;;;;;;;13.50;12.02;;;16.40;99.90;;;;;;5082193;28;20425;-74
2023/10/13 02:44:05;;;;;;;12.43;11.23;;;16.40;99.90;;;;;;5082757;28;20834;-73
2023/10/13 02:46:35;;;;;;;13.73;12.40;;;16.40;99.90;;;;;;5072214;28;20430;-74
2023/10/13 02:49:09;;;;;;;13.40;12.15;;;16.40;99.90;;;;;;5080853;28;20524;-74
2023/10/13 02:51:35;;;;;;;13.45;12.25;;;16.40;99.90;;;;;;5077535;28;20421;-73
2023/10/13 02:54:03;;;;;;;13.52;12.23;;;16.40;99.90;;;;;;5080460;28;20597;-73
2023/10/13 02:56:29;;;;;;;12.93;11.48;;;16.40;99.90;;;;;;5083658;28;20429;-74
2023/10/13 02:58:57;;;;;;;13.88;12.38;;;16.40;99.90;;;;;;5074981;28;20450;-73
2023/10/13 03:01:27;;;;;;;13.38;12.18;;;16.40;99.90;;;;;;5080582;28;20530;-74
2023/10/13 03:03:58;;;;;;;13.75;12.35;;;16.40;99.90;;;;;;5079087;28;20431;-73
2023/10/13 03:06:32;;;;;;;13.10;11.80;;;16.40;99.90;;;;;;5081941;28;20811;-73
2023/10/13 03:09:14;;;;;;;13.85;12.45;;;16.40;99.90;;;;;;5071049;28;20415;-73
2023/10/13 03:11:48;;;;;;;13.85;12.45;;;16.40;99.90;;;;;;5073863;28;20528;-73
2023/10/13 03:14:23;;;;;;;13.82;12.32;;;16.40;99.90;;;;;;5077402;28;20421;-73
2023/10/13 03:16:51;;;;;;;13.10;11.80;;;16.50;99.90;;;;;;5078969;28;20450;-73
2023/10/13 03:19:20;;;;;;;13.20;11.90;;;16.50;99.90;;;;;;5074787;28;20422;-73
2023/10/13 03:21:54;;;;;;;14.05;12.55;;;16.50;99.90;;;;;;5082713;28;20437;-73
2023/10/13 03:24:22;;;;;;;13.20;12.00;;;16.50;99.90;;;;;;5081259;28;20418;-74
2023/10/13 03:26:52;;;;;;;14.30;12.10;;;16.50;99.90;;;;;;5079631;28;20805;-74
2023/10/13 03:29:21;;;;;;;14.20;12.80;;;16.50;99.90;;;;;;5080360;28;20410;-73
2023/10/13 03:32:06;;;;;;;12.90;11.70;;;16.50;99.90;;;;;;5072386;28;21012;-73
2023/10/13 03:34:34;;;;;;;13.50;12.20;;;16.50;99.90;;;;;;5078042;28;20426;-74
2023/10/13 03:37:10;;;;;;;13.70;12.40;;;16.50;99.90;;;;;;5082571;28;20472;-73
2023/10/13 03:39:37;;;;;;;12.77;11.55;;;16.50;99.90;;;;;;5075400;28;20453;-73
2023/10/13 03:42:05;;;;;;;13.95;12.65;;;16.50;99.90;;;;;;5079746;28;20429;-73
2023/10/13 03:44:32;;;;;;;13.93;12.52;;;16.50;99.90;;;;;;5075799;28;20914;-73
2023/10/13 03:47:17;;;;;;;14.38;12.98;;;16.50;99.90;;;;;;5081630;28;20457;-73
2023/10/13 03:49:50;;;;;;;14.50;13.10;;;16.50;99.90;;;;;;5076770;28;20483;-74
2023/10/13 03:52:22;;;;;;;14.10;12.75;;;16.50;99.90;;;;;;5078948;28;20537;-73
2023/10/13 03:54:51;;;;;;;14.82;13.23;;;16.50;99.90;;;;;;5075769;28;20414;-73
2023/10/13 03:57:18;;;;;;;14.27;12.88;;;16.50;99.90;;;;;;5088881;28;20430;-73
2023/10/13 03:59:48;;;;;;;14.05;12.65;;;16.50;99.90;;;;;;5080510;28;20441;-74
2023/10/13 04:02:18;;;;;;;15.55;13.45;;;16.60;99.90;;;;;;5078129;28;20432;-73
2023/10/13 04:04:49;;;;;;;14.75;13.20;;;16.60;99.90;;;;;;5081880;28;20415;-73
2023/10/13 04:15:41;;;;;;;13.02;11.82;;;16.60;99.90;;;;;;5083664;28;20429;-73
2023/10/13 04:18:30;;;;;;;15.03;12.80;;;16.60;99.90;;;;;;5079438;28;20434;-74
2023/10/13 04:21:08;;;;;;;13.82;12.52;;;16.60;99.90;;;;;;5086559;28;20789;-74
2023/10/13 04:24:08;;;;;;;13.40;12.05;;;16.60;99.90;;;;;;5077013;28;20433;-74
2023/10/13 04:26:21;;;;;;;14.57;12.25;;;16.70;99.90;;;;;;5085426;28;20433;-74
2023/10/13 04:28:56;;;;;;;13.25;11.80;;;16.70;99.90;;;;;;5084741;28;20424;-74
2023/10/13 04:31:46;;;;;;;14.10;12.07;;;16.70;99.90;;;;;;5079370;28;20429;-73
2023/10/13 04:34:19;;;;;;;13.43;12.13;;;16.70;99.90;;;;;;5084324;28;21073;-73
2023/10/13 04:36:55;;;;;;;13.70;12.23;;;16.70;99.90;;;;;;5079031;28;20719;-73
2023/10/13 04:39:29;;;;;;;14.70;12.82;;;16.70;99.90;;;;;;5077658;28;20471;-74
2023/10/13 04:42:10;;;;;;;14.13;12.73;;;16.70;99.90;;;;;;5077633;28;20422;-73
2023/10/13 04:44:48;;;;;;;14.80;13.30;;;16.70;99.90;;;;;;5084484;28;20440;-74
2023/10/13 04:47:22;;;;;;;14.18;12.77;;;16.80;99.90;;;;;;5084134;28;20410;-73
2023/10/13 04:49:52;;;;;;;15.13;13.60;;;16.70;99.90;;;;;;5081457;28;20417;-74
2023/10/13 04:55:32;;;;;;;14.30;12.80;;;16.70;99.90;;;;;;5083049;28;20425;-74
2023/10/13 04:58:10;;;;;;;14.65;13.15;;;16.70;99.90;;;;;;5080149;28;20860;-73
2023/10/13 05:44:33;;;;;;;13.50;12.10;;;16.80;99.90;;;;;;5081741;28;20757;-74
2023/10/13 05:47:50;;;;;;;11.68;10.48;;;17.00;99.90;;;;;;5078647;28;21002;-74
2023/10/13 05:50:49;;;;;;;12.05;10.73;;;17.00;99.90;;;;;;5080471;28;20506;-74
2023/10/13 06:28:51;;;;;;;10.70;9.60;;;17.20;99.90;;;;;;5077707;28;20483;-74
2023/10/13 06:31:22;;;;;;;10.40;9.40;;;17.20;99.90;;;;;;5087027;28;20429;-74
2023/10/13 06:33:49;;;;;;;11.90;9.90;;;17.20;99.90;;;;;;5085718;28;20456;-74
2023/10/13 06:36:17;;;;;;;10.65;9.52;;;17.30;99.90;;;;;;5080265;28;20856;-74
2023/10/13 06:38:52;;;;;;;11.23;9.53;;;17.30;99.90;;;;;;5080226;28;20410;-74
2023/10/13 06:41:22;;;;;;;11.18;9.18;;;17.30;99.90;;;;;;5076385;28;20410;-74
2023/10/13 06:43:59;;;;;;;10.57;9.30;;;17.30;99.90;;;;;;5081372;28;20814;-74
2023/10/13 06:46:28;;;;;;;9.90;8.90;;;17.40;99.90;;;;;;5081316;28;20437;-74
2023/10/13 06:48:59;;;;;;;10.40;9.30;;;17.40;99.90;;;;;;5085860;28;20862;-74
2023/10/13 06:51:30;;;;;;;11.07;9.13;;;17.40;99.90;;;;;;5080015;28;20439;-74
2023/10/13 06:53:57;;;;;;;10.17;9.07;;;17.40;99.90;;;;;;5084295;28;20422;-74
2023/10/13 06:56:28;;;;;;;9.82;8.18;;;17.50;99.90;;;;;;5081304;28;20425;-74
2023/10/13 06:58:59;;;;;;;10.10;8.68;;;17.50;99.90;;;;;;5074498;28;20619;-74
2023/10/13 07:01:27;;;;;;;10.80;8.77;;;17.50;99.90;;;;;;5075372;28;20447;-74
2023/10/13 07:03:54;;;;;;;8.95;8.10;;;17.50;99.90;;;;;;5083269;28;20406;-74
2023/10/13 07:06:21;;;;;;;9.38;8.05;;;17.60;99.90;;;;;;5083133;28;20775;-74
2023/10/13 07:08:51;;;;;;;12.43;8.63;;;17.60;99.90;;;;;;5081713;28;20445;-74
2023/10/13 07:11:32;;;;;;;10.52;8.15;;;17.60;99.90;;;;;;5083178;28;20425;-74
2023/10/13 07:14:00;;;;;;;10.38;7.70;;;17.60;99.90;;;;;;5077039;28;20443;-74
2023/10/13 07:16:35;;;;;;;9.80;7.50;;;17.70;99.90;;;;;;5081963;28;20449;-74
2023/10/13 07:19:05;;;;;;;9.68;7.82;;;17.80;99.90;;;;;;5081473;28;20531;-74
2023/10/13 07:21:32;;;;;;;11.50;7.40;;;17.80;99.90;;;;;;5080697;28;20434;-74
2023/10/13 07:24:08;;;;;;;9.37;7.00;;;17.90;99.90;;;;;;5082244;28;20429;-74
2023/10/13 07:26:41;;;;;;;9.40;7.20;;;17.90;99.90;;;;;;5083957;28;20498;-74
2023/10/13 07:29:09;;;;;;;9.30;6.93;;;18.00;99.90;;;;;;5081931;28;20520;-74
2023/10/13 07:31:40;;;;;;;11.50;6.72;;;18.00;99.90;;;;;;5083834;28;20418;-74
2023/10/13 07:34:12;;;;;;;10.50;6.90;;;18.00;99.90;;;;;;5080545;28;20451;-74
2023/10/13 07:36:40;;;;;;;9.77;7.07;;;18.10;99.90;;;;;;5078870;28;20529;-74
2023/10/13 07:39:20;;;;;;;10.43;7.15;;;18.20;99.90;;;;;;5078526;28;20517;-74
2023/10/13 07:41:51;;;;;;;10.77;6.75;;;18.20;99.90;;;;;;5082251;28;20425;-74
2023/10/13 07:44:19;;;;;;;9.17;6.87;;;18.20;99.90;;;;;;5081115;28;20456;-74
2023/10/13 07:46:51;;;;;;;12.07;7.25;;;18.30;99.90;;;;;;5083327;28;20452;-73
2023/10/13 07:49:20;;;;;;;8.98;6.50;;;18.30;99.90;;;;;;5080264;28;20769;-74
2023/10/13 07:51:49;;;;;;;8.13;7.00;;;18.30;99.90;;;;;;5083707;28;20425;-74
2023/10/13 07:54:21;;;;;;;11.38;7.30;;;18.30;99.90;;;;;;5077710;28;20426;-74
2023/10/13 07:56:48;;;;;;;11.77;6.60;;;18.40;99.90;;;;;;5082478;28;20460;-74
2023/10/13 07:59:15;;;;;;;9.48;6.47;;;18.40;99.90;;;;;;5077820;28;20442;-74
2023/10/13 08:01:43;;;;;;;9.32;6.20;;;18.50;99.90;;;;;;5074991;28;20446;-74
2023/10/13 08:04:12;;;;;;;10.88;6.40;;;18.50;99.90;;;;;;5083291;28;20436;-74
2023/10/13 08:06:40;;;;;;;11.38;6.10;;;18.60;99.90;;;;;;5080708;28;20591;-73
2023/10/13 08:09:29;;;;;;;12.13;6.80;;;18.60;99.90;;;;;;5080256;28;20430;-74
2023/10/13 08:11:56;;;;;;;10.25;6.60;;;18.70;99.90;;;;;;5078509;28;20872;-74
2023/10/13 08:14:24;;;;;;;9.88;6.05;;;18.80;99.90;;;;;;5080431;28;20426;-74
2023/10/13 08:16:59;;;;;;;9.70;5.97;;;18.90;99.90;;;;;;5081966;28;20528;-74
2023/10/13 08:19:39;;;;;;;9.88;6.30;;;19.00;99.90;;;;;;5079020;28;20453;-74
2023/10/13 08:22:23;;;;;;;9.90;6.03;;;19.00;99.90;;;;;;5082829;28;20502;-74
2023/10/13 08:25:14;;;;;;;7.67;5.80;;;19.10;99.90;;;;;;5079869;28;20485;-74
2023/10/13 08:27:50;;;;;;;9.65;6.15;;;19.10;99.90;;;;;;5074518;28;20546;-74
2023/10/13 08:30:30;;;;;;;10.70;5.90;;;19.10;99.90;;;;;;5075582;28;20413;-74
2023/10/13 08:32:58;;;;;;;9.70;6.00;;;19.10;99.90;;;;;;5079820;28;20426;-74
2023/10/13 08:35:34;;;;;;;9.05;5.60;;;19.10;99.90;;;;;;5078303;28;20544;-74
2023/10/13 08:38:13;;;;;;;10.63;5.90;;;19.10;99.90;;;;;;5081995;28;20445;-74
2023/10/13 08:41:28;;;;;;;9.93;5.35;;;19.20;99.90;;;;;;5074304;28;20873;-74
2023/10/13 08:43:45;;;;;;;14.95;6.18;;;19.30;99.90;;;;;;5076692;28;20445;-68
2023/10/13 08:46:27;;;;;;;10.48;5.65;;;19.40;99.90;;;;;;5076502;28;20427;-72
2023/10/13 08:49:04;;;;;;;10.98;5.65;;;19.50;99.90;;;;;;5077089;28;20449;-67
2023/10/13 08:51:44;;;;;;;9.77;5.47;;;19.60;99.90;;;;;;5082365;28;20418;-69
2023/10/13 08:54:20;;;;;;;10.30;5.07;;;19.70;99.90;;;;;;5081376;28;20977;-69
2023/10/13 08:56:56;;;;;;;9.02;5.60;;;19.80;99.90;;;;;;5079588;28;20888;-66
2023/10/13 08:59:38;;;;;;;10.00;5.55;;;19.90;99.90;;;;;;5082048;28;20488;-66
2023/10/13 09:02:17;;;;;;;9.85;5.50;;;20.00;99.90;;;;;;5081133;28;20457;-66
2023/10/13 09:04:44;;;;;;;8.35;5.28;;;20.00;99.90;;;;;;5084458;28;20426;-66
2023/10/13 09:07:21;;;;;;;9.50;5.30;;;20.00;99.90;;;;;;5076088;28;20496;-66
2023/10/13 09:09:59;;;;;;;8.73;5.40;;;20.10;99.90;;;;;;5076536;28;20430;-66
2023/10/13 09:12:38;;;;;;;7.43;5.40;;;20.10;99.90;;;;;;5080637;28;20432;-67
2023/10/13 09:15:06;;;;;;;7.82;5.35;;;20.10;99.90;;;;;;5076012;28;20635;-66
2023/10/13 09:17:41;;;;;;;8.35;5.70;;;20.20;99.90;;;;;;5083207;28;20421;-67
2023/10/13 09:20:32;;;;;;;9.88;5.40;;;20.20;99.90;;;;;;5081084;28;20520;-80
2023/10/13 09:23:07;;;;;;;8.35;5.28;;;20.20;99.80;;;;;;5082698;28;20418;-79
2023/10/13 09:25:36;;;;;;;9.83;5.87;;;20.30;97.80;;;;;;5080534;28;20542;-78
2023/10/13 09:28:02;;;;;;;7.53;5.40;;;20.30;97.60;;;;;;5083171;28;20465;-74
2023/10/13 09:30:31;;;;;;;9.27;5.30;;;20.40;96.80;;;;;;5081208;28;20987;-74
2023/10/13 09:33:01;;;;;;;7.18;4.90;;;20.50;96.30;;;;;;5082491;28;20437;-74
2023/10/13 09:35:31;;;;;;;8.05;5.10;;;20.60;96.60;;;;;;5084223;28;20565;-74
2023/10/13 09:38:02;;;;;;;8.18;5.25;;;20.70;96.30;;;;;;5080409;28;20529;-74
2023/10/13 09:40:37;;;;;;;7.90;5.15;;;20.90;95.60;;;;;;5075207;28;20613;-74
2023/10/13 09:43:07;;;;;;;9.67;5.70;;;21.10;95.40;;;;;;5080446;28;20573;-74
2023/10/13 09:45:39;;;;;;;7.80;5.23;;;21.40;93.90;;;;;;5082792;28;20848;-74
2023/10/13 09:48:16;;;;;;;6.97;5.80;;;21.60;93.60;;;;;;5075928;28;20507;-73
2023/10/13 09:50:45;;;;;;;8.13;5.30;;;21.80;93.00;;;;;;5080098;28;20445;-73
2023/10/13 09:53:13;;;;;;;7.78;5.13;;;22.00;91.80;;;;;;5084528;28;20968;-73
2023/10/13 09:55:45;;;;;;;7.03;5.30;;;22.10;91.20;;;;;;5079073;28;20449;-74
2023/10/13 09:58:13;;;;;;;9.88;5.93;;;22.30;90.50;;;;;;5080157;28;20864;-73
2023/10/13 10:00:56;;;;;;;7.68;5.85;;;22.40;90.50;;;;;;5072066;28;20549;-74
2023/10/13 10:03:39;;;;;;;9.50;5.60;;;22.60;88.20;;;;;;5085722;28;20498;-74
2023/10/13 10:06:13;;;;;;;7.10;5.70;;;22.70;88.20;;;;;;5084586;28;20531;-74
2023/10/13 10:08:48;;;;;;;7.97;5.80;;;22.80;87.80;;;;;;5079008;28;20540;-74
2023/10/13 10:11:47;;;;;;;8.27;5.90;;;22.80;85.40;;;;;;5083745;28;20430;-73
2023/10/13 10:14:19;;;;;;;7.03;5.78;;;22.80;86.50;;;;;;5073230;28;20423;-74
2023/10/13 10:16:59;;;;;;;7.50;5.43;;;22.70;87.20;;;;;;5075668;28;20504;-74
2023/10/13 10:19:26;;;;;;;7.45;6.03;;;22.70;85.70;;;;;;5082369;28;20645;-75
2023/10/13 10:22:10;;;;;;;7.30;5.50;;;22.60;85.20;;;;;;5082146;28;20513;-75
2023/10/13 10:24:38;;;;;;;7.28;5.20;;;22.60;85.30;;;;;;5079411;28;20540;-73
2023/10/13 10:27:05;;;;;;;7.10;5.30;;;22.60;86.40;;;;;;5079086;28;20429;-75
2023/10/13 10:29:32;;;;;;;8.60;5.70;;;22.90;84.50;;;;;;5078506;28;20444;-74
2023/10/13 10:32:04;;;;;;;6.78;5.60;;;23.20;83.70;;;;;;5078661;28;20520;-74
2023/10/13 10:34:33;;;;;;;6.70;5.75;;;23.40;83.20;;;;;;5081313;28;20431;-71
2023/10/13 10:37:01;;;;;;;6.20;5.00;;;23.60;80.80;;;;;;5080290;28;20855;-72
2023/10/13 10:39:45;;;;;;;7.03;5.70;;;23.70;81.80;;;;;;5077439;28;20914;-70
2023/10/13 10:42:17;;;;;;;7.07;5.63;;;23.90;79.90;;;;;;5079364;28;20901;-72
2023/10/13 10:44:44;;;;;;;7.57;5.75;;;24.00;78.10;;;;;;5079770;28;20557;-72
2023/10/13 10:47:19;;;;;;;7.13;5.35;;;24.00;76.80;;;;;;5086933;28;20430;-72
2023/10/13 10:49:46;;;;;;;8.30;5.78;;;23.90;77.20;;;;;;5075767;28;20725;-72
2023/10/13 10:52:19;;;;;;;6.75;5.70;;;23.80;75.90;;;;;;5079780;28;20431;-72
2023/10/13 10:54:51;;;;;;;6.70;5.70;;;23.70;77.30;;;;;;5074384;28;20668;-72
2023/10/13 10:57:18;;;;;;;7.50;6.60;;;23.60;76.90;;;;;;5081776;28;20457;-71
2023/10/13 10:59:46;;;;;;;7.60;6.35;;;23.40;76.90;;;;;;5079133;28;20424;-70
2023/10/13 11:02:18;;;;;;;7.88;5.57;;;23.20;77.60;;;;;;5075373;28;20433;-70
2023/10/13 11:04:50;;;;;;;7.17;5.60;;;23.10;78.30;;;;;;5071488;28;20494;-76
2023/10/13 11:07:23;;;;;;;7.95;5.80;;;23.00;79.40;;;;;;5079894;28;20424;-81
2023/10/13 11:09:56;;;;;;;7.00;5.82;;;23.00;79.80;;;;;;5073945;28;20505;-80
2023/10/13 11:12:26;;;;;;;6.75;6.05;;;22.90;79.10;;;;;;5082626;28;20430;-79
2023/10/13 11:15:05;;;;;;;7.70;5.60;;;22.90;79.40;;;;;;5076726;28;20458;-78
2023/10/13 11:17:41;;;;;;;7.95;5.43;;;22.90;80.20;;;;;;5075734;28;20817;-79
2023/10/13 11:20:25;;;;;;;7.90;5.70;;;22.90;78.70;;;;;;5079589;28;20430;-80
2023/10/13 11:22:52;;;;;;;5.90;5.30;;;23.00;78.40;;;;;;5083265;28;20434;-79
2023/10/13 11:25:29;;;;;;;8.38;5.80;;;23.00;76.00;;;;;;5077992;28;20429;-71
2023/10/13 11:27:58;;;;;;;7.15;5.20;;;23.10;77.30;;;;;;5076637;28;20458;-71
2023/10/13 11:30:30;;;;;;;8.98;6.03;;;23.20;75.50;;;;;;5074021;28;20429;-74
2023/10/13 11:33:05;;;;;;;7.17;5.17;;;23.20;76.20;;;;;;5076271;28;20518;-74
2023/10/13 11:35:48;;;;;;;8.32;5.30;;;23.20;76.80;;;;;;5077033;28;20430;-75
2023/10/13 11:38:24;;;;;;;7.30;5.30;;;23.20;75.50;;;;;;5079131;28;20541;-74
2023/10/13 11:41:08;;;;;;;8.30;5.60;;;23.20;75.90;;;;;;5077839;28;20425;-74
2023/10/13 11:43:44;;;;;;;7.80;5.20;;;23.30;74.80;;;;;;5081278;28;20461;-76
2023/10/13 11:46:14;;;;;;;9.10;5.30;;;23.30;75.20;;;;;;5076439;28;20434;-73
2023/10/13 11:48:41;;;;;;;8.48;5.20;;;23.40;75.70;;;;;;5077471;28;20502;-72
2023/10/13 11:51:17;;;;;;;7.90;5.43;;;23.40;74.80;;;;;;5079414;28;20449;-71
2023/10/13 11:53:45;;;;;;;6.88;5.00;;;23.50;73.90;;;;;;5078432;28;20425;-71
2023/10/13 11:56:13;;;;;;;8.48;5.50;;;23.50;75.20;;;;;;5075965;28;20535;-71
2023/10/13 11:58:41;;;;;;;8.02;5.00;;;23.60;74.70;;;;;;5077428;28;20452;-71
2023/10/13 12:01:20;;;;;;;8.82;5.07;;;23.60;72.90;;;;;;5068464;28;20505;-72
2023/10/13 12:06:46;;;;;;;9.50;5.40;;;23.60;71.90;;;;;;5078854;28;20413;-72
2023/10/13 12:09:32;;;;;;;6.70;4.40;;;23.60;73.50;;;;;;5071284;28;20460;-71
2023/10/13 12:12:02;;;;;;;7.30;4.87;;;23.40;73.60;;;;;;5075355;28;20465;-75
2023/10/13 12:14:29;;;;;;;6.97;4.80;;;23.40;71.70;;;;;;5078641;28;20509;-74
2023/10/13 12:17:03;;;;;;;7.20;4.63;;;23.30;73.00;;;;;;5071868;28;20490;-73
2023/10/13 12:19:30;;;;;;;8.55;4.40;;;23.20;72.50;;;;;;5077169;28;20522;-73
2023/10/13 12:22:04;;;;;;;8.15;4.72;;;23.20;75.70;;;;;;5070784;28;20430;-73
2023/10/13 12:24:39;;;;;;;8.23;5.20;;;23.20;74.80;;;;;;5080336;28;20430;-73
2023/10/13 12:27:19;;;;;;;6.85;5.22;;;23.10;73.00;;;;;;5078370;28;20441;-73
2023/10/13 12:29:46;;;;;;;7.67;5.20;;;23.10;73.60;;;;;;5079189;28;20421;-73
2023/10/13 12:32:14;;;;;;;8.95;5.10;;;23.10;76.10;;;;;;5078885;28;20930;-78
2023/10/13 12:35:17;;;;;;;6.13;4.90;;;23.10;75.20;;;;;;5080313;28;20501;-71
2023/10/13 12:38:04;;;;;;;6.30;4.68;;;23.10;72.50;;;;;;5082487;28;20511;-72
2023/10/13 12:49:03;;;;;;;10.13;5.30;;;23.00;72.90;;;;;;5077500;28;20656;-73
2023/10/13 12:51:50;;;;;;;5.75;4.80;;;23.00;74.20;;;;;;5078396;28;20434;-72
2023/10/13 12:54:20;;;;;;;9.40;4.90;;;23.00;71.40;;;;;;5075182;28;20453;-73
2023/10/13 12:56:46;;;;;;;7.70;4.50;;;23.00;70.60;;;;;;5076742;28;20422;-74
2023/10/13 12:59:15;;;;;;;8.38;4.90;;;23.00;69.00;;;;;;5082444;28;20509;-73
2023/10/13 13:01:43;;;;;;;6.43;4.38;;;23.00;70.80;;;;;;5073348;28;20597;-71
2023/10/13 13:04:18;;;;;;;8.55;4.60;;;23.00;68.00;;;;;;5080889;28;20533;-71
2023/10/13 13:06:45;;;;;;;6.55;4.18;;;23.00;71.40;;;;;;5078237;28;20856;-72
2023/10/13 13:09:11;;;;;;;7.40;5.10;;;23.00;68.10;;;;;;5076159;28;20428;-73
2023/10/13 13:11:39;;;;;;;8.93;4.40;;;23.00;68.90;;;;;;5083198;28;20436;-73
2023/10/13 13:14:08;;;;;;;5.97;5.00;;;23.10;68.60;;;;;;5082690;28;20465;-74
2023/10/13 13:16:38;;;;;;;9.20;5.18;;;23.10;68.20;;;;;;5082125;28;20426;-74
2023/10/13 13:19:10;;;;;;;8.52;4.30;;;23.10;68.20;;;;;;5079477;28;20471;-73
2023/10/13 13:21:37;;;;;;;9.63;5.40;;;23.20;66.80;;;;;;5079612;28;20455;-73
2023/10/13 13:24:05;;;;;;;10.20;4.93;;;23.20;67.60;;;;;;5083098;28;20521;-74
2023/10/13 13:26:32;;;;;;;10.57;4.90;;;23.10;67.50;;;;;;5081862;28;20509;-74
2023/10/13 13:28:59;;;;;;;7.32;4.78;;;23.10;67.90;;;;;;5082435;28;20436;-74
2023/10/13 13:31:29;;;;;;;8.02;4.75;;;23.10;68.60;;;;;;5076160;28;20432;-74
2023/10/13 13:33:57;;;;;;;9.10;4.60;;;23.10;66.30;;;;;;5082371;28;20522;-74
2023/10/13 13:36:24;;;;;;;10.02;4.70;;;23.10;66.30;;;;;;5077980;28;20439;-74
2023/10/13 13:38:51;;;;;;;9.95;4.95;;;23.20;67.60;;;;;;5082524;28;20430;-74
2023/10/13 13:41:19;;;;;;;8.15;4.55;;;23.10;69.80;;;;;;5076820;28;21037;-75
2023/10/13 13:43:56;;;;;;;8.95;4.40;;;23.20;66.40;;;;;;5082264;28;20447;-75
2023/10/13 13:46:27;;;;;;;8.90;5.18;;;23.20;66.00;;;;;;5081745;28;20437;-76
2023/10/13 13:48:59;;;;;;;7.60;4.77;;;23.20;68.60;;;;;;5078932;28;20877;-76
2023/10/13 13:51:28;;;;;;;9.87;5.10;;;23.20;67.80;;;;;;5080042;28;20868;-76
2023/10/13 13:53:56;;;;;;;9.60;4.90;;;23.10;68.50;;;;;;5078221;28;20435;-76
2023/10/13 13:56:25;;;;;;;9.85;4.32;;;23.00;70.90;;;;;;5083402;28;20434;-75
2023/10/13 13:58:53;;;;;;;9.43;4.73;;;23.00;68.70;;;;;;5076718;28;20427;-76
2023/10/13 14:01:21;;;;;;;11.48;4.80;;;23.00;69.80;;;;;;5077625;28;20516;-74
2023/10/13 14:03:50;;;;;;;10.15;4.53;;;23.00;69.00;;;;;;5073700;28;20426;-74
2023/10/13 14:06:20;;;;;;;10.73;4.50;;;23.10;68.40;;;;;;5077668;28;20455;-74
2023/10/13 14:08:50;;;;;;;9.02;4.80;;;23.20;67.40;;;;;;5081870;28;20433;-74
2023/10/13 14:14:11;;;;;;;9.43;5.20;;;23.40;66.50;;;;;;5078691;28;20420;-71
2023/10/13 14:16:44;;;;;;;8.77;4.82;;;23.40;67.70;;;;;;5078545;28;20478;-73
2023/10/13 14:19:11;;;;;;;8.43;4.57;;;23.30;66.60;;;;;;5076569;28;20451;-74
2023/10/13 14:21:38;;;;;;;8.88;4.72;;;23.30;65.80;;;;;;5076177;28;20774;-73
2023/10/13 14:24:14;;;;;;;9.05;5.10;;;23.20;66.70;;;;;;5081067;28;20920;-73
2023/10/13 14:26:42;;;;;;;11.07;5.03;;;23.20;67.70;;;;;;5081935;28;20971;-73
2023/10/13 14:29:14;;;;;;;9.07;4.50;;;23.20;67.00;;;;;;5079532;28;20448;-72
2023/10/13 14:31:41;;;;;;;7.40;4.18;;;23.20;67.60;;;;;;5074957;28;20924;-73
2023/10/13 14:34:08;;;;;;;7.93;4.70;;;23.20;66.70;;;;;;5080680;28;20433;-73
2023/10/13 14:36:35;;;;;;;9.05;4.57;;;23.20;65.30;;;;;;5082698;28;20426;-73
2023/10/13 14:39:03;;;;;;;9.17;4.80;;;23.20;66.10;;;;;;5078383;28;20470;-71
2023/10/13 14:41:31;;;;;;;11.73;4.30;;;23.20;65.70;;;;;;5071872;28;21042;-72
2023/10/13 14:44:04;;;;;;;7.22;4.90;;;23.20;65.10;;;;;;5078317;28;20921;-71
2023/10/13 14:46:35;;;;;;;9.38;4.50;;;23.20;64.90;;;;;;5078631;28;20441;-71
2023/10/13 14:49:02;;;;;;;8.93;4.10;;;23.20;65.90;;;;;;5076981;28;20524;-71